createdAt,value
2023-03-05T00:01:26.059Z,96509.44
2023-03-05T00:03:52.408Z,96503.53
2023-03-05T00:06:18.770Z,96506.31
2023-03-05T00:08:45.063Z,96503.97
2023-03-05T00:11:11.372Z,96507.88
2023-03-05T00:13:37.704Z,96508.09
2023-03-05T00:16:04.030Z,96506.84
2023-03-05T00:18:30.395Z,96500.84
2023-03-05T00:20:56.715Z,96500.72
2023-03-05T00:23:23.006Z,96503.34
2023-03-05T00:25:49.336Z,96508.47
2023-03-05T00:28:15.647Z,96509.91
2023-03-05T00:30:41.938Z,96510.03
2023-03-05T00:33:08.237Z,96508.84
2023-03-05T00:35:35.239Z,96510.56
2023-03-05T00:38:02.320Z,96515.41
2023-03-05T00:40:28.604Z,96505.25
2023-03-05T00:42:54.945Z,96513.66
2023-03-05T00:45:21.233Z,96512.72
2023-03-05T00:47:47.580Z,96508.03
2023-03-05T00:50:13.906Z,96509.22
2023-03-05T00:52:40.214Z,96513.13
2023-03-05T00:55:06.519Z,96520.84
2023-03-05T00:57:32.835Z,96512.88
2023-03-05T00:59:59.136Z,96507.31
2023-03-05T01:02:25.407Z,96512.25
2023-03-05T01:04:51.742Z,96508.03
2023-03-05T01:07:18.132Z,96501.28
2023-03-05T01:09:44.437Z,96503.94
2023-03-05T01:12:10.732Z,96488.53
2023-03-05T01:14:37.015Z,96498.34
2023-03-05T01:17:03.315Z,96500.69
2023-03-05T01:19:29.634Z,96494.34
2023-03-05T01:21:55.928Z,96489.09
2023-03-05T01:24:22.221Z,96489.16
2023-03-05T01:26:48.515Z,96493.38
2023-03-05T01:29:14.802Z,96478.94
2023-03-05T01:31:41.125Z,96486.72
2023-03-05T01:34:07.433Z,96487.38
2023-03-05T01:36:33.722Z,96486.13
2023-03-05T01:39:00.022Z,96477.69
2023-03-05T01:41:26.330Z,96479.88
2023-03-05T01:43:52.632Z,96472.97
2023-03-05T01:46:18.948Z,96472.28
2023-03-05T01:48:45.312Z,96471.38
2023-03-05T01:51:11.601Z,96467.44
2023-03-05T01:53:37.881Z,96464.34
2023-03-05T01:56:04.238Z,96465.78
2023-03-05T01:58:30.569Z,96464.81
2023-03-05T02:00:56.899Z,96456.94
2023-03-05T02:03:23.223Z,96458.84
2023-03-05T02:05:49.517Z,96459.28
2023-03-05T02:08:15.823Z,96450.06
2023-03-05T02:10:42.157Z,96458.63
2023-03-05T02:13:08.471Z,96451.25
2023-03-05T02:15:34.764Z,96458.34
2023-03-05T02:18:01.174Z,96445.06
2023-03-05T02:20:27.474Z,96444.50
2023-03-05T02:22:53.792Z,96445.31
2023-03-05T02:25:20.118Z,96451.03
2023-03-05T02:27:46.396Z,96441.81
2023-03-05T02:30:12.697Z,96438.75
2023-03-05T02:32:39.065Z,96433.25
2023-03-05T02:35:05.414Z,96436.84
2023-03-05T02:37:31.705Z,96437.19
2023-03-05T02:39:58.020Z,96435.22
2023-03-05T02:42:24.324Z,96426.03
2023-03-05T02:44:50.613Z,96428.72
2023-03-05T02:47:16.939Z,96422.13
2023-03-05T02:49:43.222Z,96430.75
2023-03-05T02:52:09.537Z,96433.78
2023-03-05T02:54:35.839Z,96430.59
2023-03-05T02:57:02.138Z,96433.72
2023-03-05T02:59:28.424Z,96429.91
2023-03-05T03:01:54.781Z,96429.91
2023-03-05T03:04:21.091Z,96431.09
2023-03-05T03:06:47.382Z,96425.94
2023-03-05T03:09:13.688Z,96431.88
2023-03-05T03:11:39.977Z,96432.25
2023-03-05T03:14:06.258Z,96430.66
2023-03-05T03:16:32.570Z,96433.03
2023-03-05T03:18:58.877Z,96435.38
2023-03-05T03:21:25.172Z,96432.94
2023-03-05T03:23:51.489Z,96433.78
2023-03-05T03:26:17.773Z,96427.56
2023-03-05T03:28:44.067Z,96435.25
2023-03-05T03:31:10.445Z,96430.59
2023-03-05T03:33:36.772Z,96429.72
2023-03-05T03:36:03.053Z,96437.47
2023-03-05T03:38:29.370Z,96431.09
2023-03-05T03:40:55.667Z,96424.16
2023-03-05T03:43:21.964Z,96426.53
2023-03-05T03:45:48.321Z,96427.13
2023-03-05T03:48:14.652Z,96432.56
2023-03-05T03:50:40.945Z,96422.13
2023-03-05T03:53:07.275Z,96418.97
2023-03-05T03:55:33.562Z,96425.00
2023-03-05T03:57:59.862Z,96421.38
2023-03-05T04:00:26.177Z,96419.81
2023-03-05T04:02:52.498Z,96426.91
2023-03-05T04:05:18.836Z,96431.88
2023-03-05T04:07:45.183Z,96429.22
2023-03-05T04:10:11.480Z,96423.59
2023-03-05T04:12:37.770Z,96424.00
2023-03-05T04:15:04.086Z,96430.41
2023-03-05T04:17:30.395Z,96427.09
2023-03-05T04:19:56.688Z,96424.97
2023-03-05T04:22:23.008Z,96421.22
2023-03-05T04:24:49.294Z,96411.31
2023-03-05T04:27:15.575Z,96418.06
2023-03-05T04:29:41.869Z,96411.72
2023-03-05T04:32:08.213Z,96414.53
2023-03-05T04:34:34.532Z,96409.47
2023-03-05T04:37:00.853Z,96402.09
2023-03-05T04:39:27.143Z,96406.41
2023-03-05T04:41:53.427Z,96396.53
2023-03-05T04:44:19.745Z,96400.78
2023-03-05T04:46:46.135Z,96396.19
2023-03-05T04:49:12.454Z,96402.03
2023-03-05T04:51:38.767Z,96389.72
2023-03-05T04:54:05.065Z,96396.13
2023-03-05T04:56:31.359Z,96390.63
2023-03-05T04:58:57.664Z,96386.75
2023-03-05T05:01:24.070Z,96382.91
2023-03-05T05:03:50.441Z,96382.53
2023-03-05T05:06:16.749Z,96383.28
2023-03-05T05:08:43.050Z,96382.78
2023-03-05T05:11:09.346Z,96386.06
2023-03-05T05:13:35.708Z,96384.94
2023-03-05T05:16:02.091Z,96383.75
2023-03-05T05:18:28.411Z,96381.09
2023-03-05T05:20:54.740Z,96377.97
2023-03-05T05:23:21.035Z,96380.28
2023-03-05T05:25:47.336Z,96372.09
2023-03-05T05:28:13.649Z,96371.34
2023-03-05T05:30:39.953Z,96374.06
2023-03-05T05:33:06.251Z,96373.19
2023-03-05T05:35:32.603Z,96376.75
2023-03-05T05:37:58.927Z,96376.50
2023-03-05T05:40:25.223Z,96363.44
2023-03-05T05:42:51.522Z,96366.41
2023-03-05T05:45:17.896Z,96366.28
2023-03-05T05:47:44.249Z,96372.19
2023-03-05T05:50:10.571Z,96377.97
2023-03-05T05:52:36.877Z,96372.63
2023-03-05T05:55:03.181Z,96375.47
2023-03-05T05:57:29.495Z,96381.34
2023-03-05T05:59:55.780Z,96380.50
2023-03-05T06:02:22.076Z,96368.75
2023-03-05T06:04:48.405Z,96375.84
2023-03-05T06:07:14.693Z,96374.25
2023-03-05T06:09:40.979Z,96357.75
2023-03-05T06:12:07.286Z,96368.81
2023-03-05T06:14:33.591Z,96366.59
2023-03-05T06:16:59.914Z,96368.22
2023-03-05T06:19:26.257Z,96367.38
2023-03-05T06:21:52.561Z,96362.56
2023-03-05T06:24:18.841Z,96377.34
2023-03-05T06:26:45.158Z,96376.97
2023-03-05T06:29:11.443Z,96374.31
2023-03-05T06:31:37.740Z,96378.06
2023-03-05T06:34:04.055Z,96378.53
2023-03-05T06:36:30.373Z,96366.47
2023-03-05T06:38:56.678Z,96371.47
2023-03-05T06:41:22.995Z,96367.91
2023-03-05T06:43:49.273Z,96370.59
2023-03-05T06:46:15.598Z,96370.66
2023-03-05T06:48:41.924Z,96362.31
2023-03-05T06:51:08.216Z,96362.63
2023-03-05T06:53:34.509Z,96365.47
2023-03-05T06:56:00.827Z,96363.53
2023-03-05T06:58:27.110Z,96358.94
2023-03-05T07:00:53.426Z,96357.44
2023-03-05T07:03:19.775Z,96353.88
2023-03-05T07:05:46.067Z,96346.81
2023-03-05T07:08:12.377Z,96354.03
2023-03-05T07:10:38.686Z,96346.88
2023-03-05T07:13:04.990Z,96346.88
2023-03-05T07:15:31.324Z,96346.09
2023-03-05T07:17:57.674Z,96342.09
2023-03-05T07:20:23.951Z,96337.91
2023-03-05T07:22:50.253Z,96329.22
2023-03-05T07:25:16.598Z,96334.88
2023-03-05T07:27:42.897Z,96330.19
2023-03-05T07:30:09.179Z,96329.53
2023-03-05T07:32:35.638Z,96326.66
2023-03-05T07:35:01.964Z,96337.66
2023-03-05T07:37:28.282Z,96327.28
2023-03-05T07:39:54.631Z,96325.13
2023-03-05T07:42:28.070Z,96335.34
2023-03-05T07:44:54.703Z,96332.66
2023-03-05T07:47:21.001Z,96332.72
2023-03-05T07:49:47.281Z,96324.81
2023-03-05T07:52:13.596Z,96321.72
2023-03-05T07:54:39.897Z,96329.41
2023-03-05T07:57:06.200Z,96324.03
2023-03-05T07:59:32.530Z,96334.13
2023-03-05T08:01:58.813Z,96334.56
2023-03-05T08:04:25.137Z,96318.63
2023-03-05T08:06:51.483Z,96319.81
2023-03-05T08:09:17.759Z,96325.47
2023-03-05T08:11:44.058Z,96320.31
2023-03-05T08:14:10.394Z,96325.13
2023-03-05T08:16:36.716Z,96325.19
2023-03-05T08:19:03.025Z,96325.66
2023-03-05T08:21:29.406Z,96323.69
2023-03-05T08:23:55.761Z,96325.34
2023-03-05T08:26:22.055Z,96320.09
2023-03-05T08:28:48.386Z,96317.66
2023-03-05T08:31:14.718Z,96318.88
2023-03-05T08:33:41.034Z,96316.56
2023-03-05T08:36:07.348Z,96314.06
2023-03-05T08:38:33.630Z,96311.44
2023-03-05T08:40:59.940Z,96309.47
2023-03-05T08:43:26.251Z,96310.16
2023-03-05T08:45:52.554Z,96310.81
2023-03-05T08:48:18.845Z,96309.94
2023-03-05T08:50:45.158Z,96310.06
2023-03-05T08:53:11.443Z,96304.16
2023-03-05T08:55:37.732Z,96301.13
2023-03-05T08:58:04.045Z,96297.16
2023-03-05T09:00:30.350Z,96298.06
2023-03-05T09:02:56.708Z,96304.06
2023-03-05T09:05:23.054Z,96295.03
2023-03-05T09:07:49.349Z,96293.81
2023-03-05T09:10:15.658Z,96295.09
2023-03-05T09:12:41.969Z,96294.25
2023-03-05T09:15:08.270Z,96302.50
2023-03-05T09:17:34.597Z,96302.22
2023-03-05T09:20:00.904Z,96307.00
2023-03-05T09:22:27.214Z,96309.09
2023-03-05T09:24:53.502Z,96293.81
2023-03-05T09:27:19.832Z,96284.34
2023-03-05T09:29:46.120Z,96290.28
2023-03-05T09:32:12.447Z,96293.78
2023-03-05T09:34:38.832Z,96293.44
2023-03-05T09:37:05.129Z,96287.84
2023-03-05T09:39:31.425Z,96294.66
2023-03-05T09:41:57.729Z,96287.28
2023-03-05T09:44:24.017Z,96276.31
2023-03-05T09:46:50.334Z,96270.81
2023-03-05T09:49:16.656Z,96277.78
2023-03-05T09:51:42.941Z,96280.59
2023-03-05T09:54:09.233Z,96263.72
2023-03-05T09:56:35.530Z,96262.56
2023-03-05T09:59:01.816Z,96260.59
2023-03-05T10:01:28.087Z,96270.22
2023-03-05T10:03:54.498Z,96254.63
2023-03-05T10:06:20.827Z,96250.75
2023-03-05T10:08:47.114Z,96255.88
2023-03-05T10:11:13.422Z,96251.16
2023-03-05T10:13:39.722Z,96248.78
2023-03-05T10:16:06.027Z,96246.81
2023-03-05T10:18:32.320Z,96249.50
2023-03-05T10:20:58.617Z,96241.25
2023-03-05T10:23:24.926Z,96247.53
2023-03-05T10:25:51.266Z,96236.56
2023-03-05T10:28:17.568Z,96231.84
2023-03-05T10:30:43.869Z,96238.88
2023-03-05T10:33:10.174Z,96236.19
2023-03-05T10:35:36.499Z,96236.56
2023-03-05T10:38:02.816Z,96231.44
2023-03-05T10:40:29.165Z,96231.06
2023-03-05T10:42:55.463Z,96232.63
2023-03-05T10:45:21.750Z,96220.78
2023-03-05T10:47:48.048Z,96216.38
2023-03-05T10:50:14.339Z,96207.34
2023-03-05T10:52:40.647Z,96213.69
2023-03-05T10:55:06.976Z,96206.56
2023-03-05T10:57:33.271Z,96202.66
2023-03-05T10:59:59.566Z,96206.16
2023-03-05T11:02:25.979Z,96194.56
2023-03-05T11:04:52.329Z,96198.63
2023-03-05T11:07:18.615Z,96196.84
2023-03-05T11:09:44.943Z,96186.50
2023-03-05T11:12:11.235Z,96185.06
2023-03-05T11:14:37.529Z,96179.06
2023-03-05T11:17:03.836Z,96174.75
2023-03-05T11:19:30.180Z,96178.00
2023-03-05T11:21:57.961Z,96178.56
2023-03-05T11:24:25.836Z,96169.91
2023-03-05T11:26:52.124Z,96166.50
2023-03-05T11:29:18.408Z,96154.06
2023-03-05T11:31:44.722Z,96142.22
2023-03-05T11:34:11.022Z,96144.31
2023-03-05T11:36:37.365Z,96141.41
2023-03-05T11:39:03.681Z,96139.56
2023-03-05T11:41:29.989Z,96134.34
2023-03-05T11:43:56.285Z,96134.22
2023-03-05T11:46:22.717Z,96127.38
2023-03-05T11:48:49.046Z,96124.63
2023-03-05T11:51:15.350Z,96119.06
2023-03-05T11:53:41.649Z,96119.88
2023-03-05T11:56:07.945Z,96116.94
2023-03-05T11:58:34.252Z,96114.75
2023-03-05T12:01:00.581Z,96105.09
2023-03-05T12:03:26.921Z,96105.69
2023-03-05T12:05:53.237Z,96096.91
2023-03-05T12:08:19.549Z,96095.91
2023-03-05T12:10:45.843Z,96100.34
2023-03-05T12:13:12.132Z,96089.75
2023-03-05T12:15:38.429Z,96077.53
2023-03-05T12:18:04.713Z,96082.44
2023-03-05T12:20:31.084Z,96072.59
2023-03-05T12:22:57.488Z,96077.47
2023-03-05T12:25:23.783Z,96066.81
2023-03-05T12:27:50.070Z,96054.69
2023-03-05T12:30:16.395Z,96063.34
2023-03-05T12:32:43.137Z,96048.09
2023-03-05T12:35:09.545Z,96048.06
2023-03-05T12:37:35.860Z,96045.47
2023-03-05T12:40:02.152Z,96043.41
2023-03-05T12:42:28.432Z,96030.19
2023-03-05T12:44:54.761Z,96030.88
2023-03-05T12:47:21.052Z,96026.50
2023-03-05T12:49:47.353Z,96028.88
2023-03-05T12:52:13.696Z,96027.38
2023-03-05T12:54:39.976Z,96019.38
2023-03-05T12:57:06.259Z,96017.41
2023-03-05T12:59:32.555Z,96005.03
2023-03-05T13:01:58.847Z,96005.09
2023-03-05T13:04:25.142Z,96002.56
2023-03-05T13:06:51.466Z,96008.84
2023-03-05T13:09:17.770Z,96000.38
2023-03-05T13:11:44.078Z,95997.88
2023-03-05T13:14:10.395Z,96003.88
2023-03-05T13:16:36.707Z,96003.59
2023-03-05T13:19:03.067Z,95993.44
2023-03-05T13:21:29.390Z,95996.38
2023-03-05T13:23:55.683Z,95989.13
2023-03-05T13:26:21.980Z,95990.47
2023-03-05T13:28:48.293Z,95980.22
2023-03-05T13:31:14.610Z,95981.41
2023-03-05T13:33:40.906Z,95970.50
2023-03-05T13:36:07.200Z,95969.22
2023-03-05T13:38:33.592Z,95973.47
2023-03-05T13:40:59.905Z,95963.09
2023-03-05T13:43:26.220Z,95964.09
2023-03-05T13:45:52.551Z,95962.88
2023-03-05T13:48:19.047Z,95956.06
2023-03-05T13:50:45.381Z,95957.66
2023-03-05T13:53:11.668Z,95942.34
2023-03-05T13:55:37.994Z,95949.72
2023-03-05T13:58:04.328Z,95943.91
2023-03-05T14:00:30.629Z,95950.34
2023-03-05T14:02:59.461Z,95938.78
2023-03-05T14:05:25.924Z,95929.13
2023-03-05T14:07:52.220Z,95932.72
2023-03-05T14:10:18.824Z,95928.88
2023-03-05T14:12:45.146Z,95921.84
2023-03-05T14:15:11.434Z,95917.78
2023-03-05T14:17:37.727Z,95918.03
2023-03-05T14:20:04.033Z,95918.81
2023-03-05T14:22:30.327Z,95913.53
2023-03-05T14:24:56.619Z,95908.53
2023-03-05T14:27:22.925Z,95907.28
2023-03-05T14:29:49.226Z,95897.00
2023-03-05T14:32:15.528Z,95888.81
2023-03-05T14:34:41.841Z,95882.72
2023-03-05T14:37:08.143Z,95884.91
2023-03-05T14:39:34.437Z,95878.63
2023-03-05T14:42:00.742Z,95870.88
2023-03-05T14:44:27.053Z,95873.16
2023-03-05T14:46:53.346Z,95874.41
2023-03-05T14:49:19.649Z,95865.22
2023-03-05T14:51:45.945Z,95867.47
2023-03-05T14:54:12.253Z,95862.19
2023-03-05T14:56:38.565Z,95864.66
2023-03-05T14:59:04.859Z,95862.00
2023-03-05T15:01:31.178Z,95855.03
2023-03-05T15:03:57.541Z,95850.66
2023-03-05T15:06:26.044Z,95844.75
2023-03-05T15:08:52.876Z,95837.69
2023-03-05T15:11:19.179Z,95832.66
2023-03-05T15:13:45.470Z,95821.78
2023-03-05T15:16:11.787Z,95817.25
2023-03-05T15:18:38.136Z,95822.25
2023-03-05T15:21:04.422Z,95819.34
2023-03-05T15:23:30.705Z,95816.59
2023-03-05T15:25:57.026Z,95812.03
2023-03-05T15:28:23.313Z,95817.78
2023-03-05T15:30:49.640Z,95816.97
2023-03-05T15:33:15.949Z,95812.53
2023-03-05T15:35:42.267Z,95811.00
2023-03-05T15:38:08.677Z,95811.19
2023-03-05T15:40:34.986Z,95797.44
2023-03-05T15:43:01.287Z,95799.69
2023-03-05T15:45:27.594Z,95799.09
2023-03-05T15:47:53.899Z,95798.63
2023-03-05T15:50:20.201Z,95785.69
2023-03-05T15:52:46.480Z,95781.88
2023-03-05T15:55:12.791Z,95780.91
2023-03-05T15:57:39.093Z,95783.97
2023-03-05T16:00:05.494Z,95782.75
2023-03-05T16:02:31.810Z,95782.25
2023-03-05T16:04:58.094Z,95775.94
2023-03-05T16:07:24.384Z,95776.03
2023-03-05T16:09:50.759Z,95779.63
2023-03-05T16:12:17.056Z,95766.84
2023-03-05T16:14:43.339Z,95768.63
2023-03-05T16:17:09.668Z,95770.03
2023-03-05T16:19:35.960Z,95771.94
2023-03-05T16:22:02.261Z,95770.53
2023-03-05T16:24:28.574Z,95763.34
2023-03-05T16:26:54.878Z,95762.16
2023-03-05T16:29:21.177Z,95759.25
2023-03-05T16:31:47.546Z,95767.88
2023-03-05T16:34:13.946Z,95768.72
2023-03-05T16:36:40.245Z,95759.75
2023-03-05T16:39:06.539Z,95763.72
2023-03-05T16:41:32.832Z,95761.44
2023-03-05T16:43:59.136Z,95760.31
2023-03-05T16:46:25.469Z,95761.78
2023-03-05T16:48:51.753Z,95748.53
2023-03-05T16:51:19.878Z,95747.94
2023-03-05T16:53:46.285Z,95750.72
2023-03-05T16:56:12.580Z,95746.13
2023-03-05T16:58:39.092Z,95747.63
2023-03-05T17:01:05.458Z,95749.97
2023-03-05T17:03:31.790Z,95752.66
2023-03-05T17:05:58.099Z,95746.16
2023-03-05T17:08:24.423Z,95746.56
2023-03-05T17:10:50.718Z,95751.81
2023-03-05T17:13:17.002Z,95751.09
2023-03-05T17:18:14.632Z,95747.78
2023-03-05T17:20:40.917Z,95753.47
2023-03-05T17:23:07.231Z,95750.84
2023-03-05T17:25:33.527Z,95753.00
2023-03-05T17:27:59.818Z,95756.81
2023-03-05T17:30:26.121Z,95749.38
2023-03-05T17:32:52.431Z,95752.69
2023-03-05T17:35:18.753Z,95753.53
2023-03-05T17:37:45.124Z,95746.06
2023-03-05T17:40:11.407Z,95752.50
2023-03-05T17:42:37.699Z,95752.22
2023-03-05T17:45:03.996Z,95745.03
2023-03-05T17:47:30.306Z,95741.06
2023-03-05T17:49:56.604Z,95746.66
2023-03-05T17:52:22.906Z,95752.66
2023-03-05T17:54:49.207Z,95758.81
2023-03-05T17:57:15.498Z,95748.22
2023-03-05T17:59:43.719Z,95756.47
2023-03-05T18:02:10.891Z,95756.66
2023-03-05T18:04:37.270Z,95760.84
2023-03-05T18:07:03.619Z,95756.56
2023-03-05T18:09:29.906Z,95757.69
2023-03-05T18:11:56.212Z,95764.06
2023-03-05T18:14:22.541Z,95758.50
2023-03-05T18:16:48.873Z,95757.00
2023-03-05T18:19:15.182Z,95757.56
2023-03-05T18:21:41.525Z,95761.31
2023-03-05T18:24:07.813Z,95762.41
2023-03-05T18:26:34.091Z,95763.94
2023-03-05T18:29:00.416Z,95756.56
2023-03-05T18:31:26.712Z,95760.06
2023-03-05T18:33:53.000Z,95760.84
2023-03-05T18:36:19.305Z,95750.22
2023-03-05T18:38:45.587Z,95751.47
2023-03-05T18:41:11.881Z,95754.06
2023-03-05T18:43:38.192Z,95753.31
2023-03-05T18:46:04.522Z,95751.84
2023-03-05T18:48:30.861Z,95755.38
2023-03-05T18:50:57.179Z,95753.69
2023-03-05T18:53:23.472Z,95749.69
2023-03-05T18:55:51.488Z,95742.97
2023-03-05T18:58:17.943Z,95743.88
2023-03-05T19:00:44.232Z,95744.72
2023-03-05T19:03:10.522Z,95735.59
2023-03-05T19:05:36.841Z,95729.16
2023-03-05T19:08:03.128Z,95731.69
2023-03-05T19:10:29.424Z,95725.66
2023-03-05T19:12:55.837Z,95731.81
2023-03-05T19:15:22.220Z,95724.72
2023-03-05T19:17:48.766Z,95723.75
2023-03-05T19:20:15.149Z,95728.97
2023-03-05T19:22:41.570Z,95724.72
2023-03-05T19:25:07.870Z,95716.81
2023-03-05T19:27:34.228Z,95726.75
2023-03-05T19:30:00.519Z,95719.81
2023-03-05T19:32:26.847Z,95715.53
2023-03-05T19:34:53.604Z,95711.06
2023-03-05T19:37:19.896Z,95714.91
2023-03-05T19:39:46.176Z,95711.13
2023-03-05T19:42:12.512Z,95707.88
2023-03-05T19:44:38.812Z,95707.25
2023-03-05T19:47:05.094Z,95715.44
2023-03-05T19:49:31.520Z,95714.09
2023-03-05T19:51:57.918Z,95705.25
2023-03-05T19:54:24.206Z,95701.91
2023-03-05T19:56:51.854Z,95702.78
2023-03-05T19:59:19.821Z,95698.66
2023-03-05T20:01:46.153Z,95701.09
2023-03-05T20:04:12.482Z,95700.44
2023-03-05T20:06:39.141Z,95696.41
2023-03-05T20:09:07.920Z,95698.22
2023-03-05T20:11:34.416Z,95695.97
2023-03-05T20:14:00.710Z,95692.91
2023-03-05T20:16:27.289Z,95697.28
2023-03-05T20:18:53.605Z,95698.47
2023-03-05T20:21:19.892Z,95699.53
2023-03-05T20:23:46.207Z,95697.28
2023-03-05T20:26:12.539Z,95694.09
2023-03-05T20:28:39.109Z,95688.47
2023-03-05T20:31:05.791Z,95689.41
2023-03-05T20:33:32.247Z,95680.88
2023-03-05T20:35:58.571Z,95679.28
2023-03-05T20:38:24.860Z,95676.16
2023-03-05T20:40:51.156Z,95671.06
2023-03-05T20:43:17.454Z,95664.28
2023-03-05T20:45:43.787Z,95669.88
2023-03-05T20:48:10.082Z,95671.00
2023-03-05T20:50:36.369Z,95673.34
2023-03-05T20:53:02.655Z,95673.41
2023-03-05T20:55:28.952Z,95674.22
2023-03-05T20:57:55.339Z,95668.34
2023-03-05T21:00:21.635Z,95671.75
2023-03-05T21:02:47.938Z,95674.78
2023-03-05T21:05:14.233Z,95678.31
2023-03-05T21:07:40.527Z,95676.84
2023-03-05T21:10:06.836Z,95688.06
2023-03-05T21:12:33.134Z,95678.78
2023-03-05T21:14:59.421Z,95681.06
2023-03-05T21:17:25.724Z,95683.81
2023-03-05T21:19:52.013Z,95671.28
2023-03-05T21:22:18.288Z,95677.66
2023-03-05T21:24:44.604Z,95676.50
2023-03-05T21:27:10.902Z,95673.31
2023-03-05T21:29:37.203Z,95674.13
2023-03-05T21:32:03.616Z,95667.63
2023-03-05T21:34:29.982Z,95666.16
2023-03-05T21:36:56.257Z,95663.53
2023-03-05T21:39:22.599Z,95656.38
2023-03-05T21:41:48.890Z,95656.50
2023-03-05T21:44:15.181Z,95642.19
2023-03-05T21:46:41.503Z,95650.00
2023-03-05T21:49:07.791Z,95641.97
2023-03-05T21:51:34.139Z,95629.88
2023-03-05T21:54:00.453Z,95630.97
2023-03-05T21:56:26.732Z,95631.78
2023-03-05T21:58:53.011Z,95626.91
2023-03-05T22:01:19.492Z,95633.78
2023-03-05T22:03:45.917Z,95629.50
2023-03-05T22:06:12.241Z,95625.63
2023-03-05T22:08:38.572Z,95627.19
2023-03-05T22:11:04.870Z,95625.88
2023-03-05T22:13:31.162Z,95620.97
2023-03-05T22:15:57.486Z,95622.97
2023-03-05T22:18:23.896Z,95624.47
2023-03-05T22:20:50.209Z,95620.28
2023-03-05T22:23:16.516Z,95626.03
2023-03-05T22:25:42.804Z,95612.38
2023-03-05T22:28:09.097Z,95609.06
2023-03-05T22:30:35.415Z,95608.31
2023-03-05T22:33:01.720Z,95605.38
2023-03-05T22:35:28.036Z,95615.59
2023-03-05T22:37:54.410Z,95608.97
2023-03-05T22:40:20.704Z,95609.00
2023-03-05T22:42:46.999Z,95607.69
2023-03-05T22:45:13.355Z,95606.84
2023-03-05T22:47:39.648Z,95607.72
2023-03-05T22:50:05.941Z,95606.91
2023-03-05T22:52:32.240Z,95606.16
2023-03-05T22:54:58.538Z,95599.84
2023-03-05T22:57:24.953Z,95597.47
2023-03-05T22:59:51.261Z,95595.94
2023-03-05T23:02:17.571Z,95597.63
2023-03-05T23:04:43.864Z,95593.41
2023-03-05T23:07:10.284Z,95596.53
2023-03-05T23:09:36.583Z,95594.59
2023-03-05T23:12:02.882Z,95604.00
2023-03-05T23:14:29.197Z,95598.00
2023-03-05T23:16:55.501Z,95595.31
2023-03-05T23:19:21.791Z,95588.19
2023-03-05T23:21:48.105Z,95595.78
2023-03-05T23:24:14.391Z,95589.13
2023-03-05T23:26:40.685Z,95586.69
2023-03-05T23:29:07.131Z,95586.25
2023-03-05T23:31:33.473Z,95582.78
2023-03-05T23:33:59.779Z,95578.44
2023-03-05T23:36:26.093Z,95578.72
2023-03-05T23:38:52.388Z,95578.97
2023-03-05T23:41:18.685Z,95579.00
2023-03-05T23:43:44.990Z,95582.47
2023-03-05T23:46:11.318Z,95586.75
2023-03-05T23:48:37.627Z,95577.34
2023-03-05T23:51:03.970Z,95585.53
2023-03-05T23:53:30.266Z,95588.47
2023-03-05T23:55:56.574Z,95592.66
2023-03-05T23:58:22.892Z,95585.56
